Flight Track Log - Related Links

Times and Time Zones

All times are in EDT time to prevent confusion due to time zone crossing. See the N68AP flight status page for this flight to view local times or setup timezone preferences in your user account.

Time Position Orientation Groundspeed Altitude Reporting Facility
EDT Latitude Longitude Course Direction KTS MPH feet Rate Location/Type
Sat 11:57:00 AM 42.3244 -84.3727 330° Northwest  Level FlightAware Approximate
Sat 11:58:00 AM 42.3506 -84.3934 330° Northwest  Level FlightAware Approximate
Sat 11:59:00 AM 42.3769 -84.4140 330° Northwest  Level FlightAware Approximate
Sat 12:00:00 PM 42.4031 -84.4347 330° Northwest  Level FlightAware Approximate
Sat 12:01:00 PM 42.4293 -84.4554 330° Northwest  Level FlightAware Approximate
Sat 12:02:00 PM 42.4556 -84.4761 330° Northwest  Level FlightAware Approximate
Sat 12:03:00 PM 42.4818 -84.4968 330° Northwest  Level FlightAware Approximate
Sat 12:04:00 PM 42.5080 -84.5176 330° Northwest  Level FlightAware Approximate
Sat 12:05:00 PM 42.5342 -84.5383 330° Northwest  Level FlightAware Approximate
Sat 12:06:00 PM 42.5605 -84.5591 330° Northwest  Level FlightAware Approximate
Sat 12:07:00 PM 42.5867 -84.5799 330° Northwest  Level FlightAware Approximate
Sat 12:08:00 PM 42.6129 -84.6007 330° Northwest  Level FlightAware Approximate
Sat 12:09:00 PM 42.6391 -84.6216 330° Northwest  Level FlightAware Approximate
Sat 12:10:00 PM 42.6653 -84.6424 330° Northwest  Level FlightAware Approximate
Sat 12:11:00 PM 42.6915 -84.6633 330° Northwest  Level FlightAware Approximate
Sat 12:12:00 PM 42.7158 -84.6845 225° Southwest  Level FlightAware Approximate
Sat 12:13:00 PM 42.6944 -84.7138 225° Southwest  Level FlightAware Approximate
Sat 12:14:00 PM 42.6730 -84.7431 225° Southwest  Level FlightAware Approximate
Sat 12:14:04 PM 42.6506 -84.8167 225° Southwest 87 100 3,100  Level Chicago Center
Sat 12:15:00 PM 42.6516 -84.7723 225° Southwest  Level FlightAware Approximate
Sat 12:15:05 PM 42.6206 -84.8608 227° Southwest 150 173 3,200  Level Chicago Center
Sat 12:16:00 PM 42.6302 -84.8016 225° Southwest  Level FlightAware Approximate
Sat 12:16:07 PM 42.5919 -84.9031 227° Southwest 151 174 3,100  Level Chicago Center
Sat 12:17:00 PM 42.6003 -84.8423 225° Southwest  Level FlightAware Approximate
Sat 12:17:09 PM 42.5569 -84.9528 226° Southwest 152 175 3,100  Level Chicago Center
Sat 12:18:00 PM 42.5704 -84.8829 225° Southwest  Level FlightAware Approximate
Sat 12:18:10 PM 42.5272 -84.9919 224° Southwest 151 174 3,100  Level Chicago Center
Sat 12:19:00 PM 42.5405 -84.9236 225° Southwest  Level FlightAware Approximate
Sat 12:19:12 PM 42.4953 -85.0289 220° Southwest 150 173 3,200  Level Chicago Center
Sat 12:20:14 PM 42.4647 -85.0658 222° Southwest 149 171 3,200 -97 Level Chicago Center
Sat 12:21:16 PM 42.4331 -85.1039 222° Southwest 151 174 3,000 -341 Descending Chicago Center
Sat 12:22:17 PM 42.3969 -85.1444 220° Southwest 151 174 2,500 -150 Descending Chicago Center
Sat 12:24:00 PM 42.3404 -85.2061 219° Southwest  Level FlightAware Approximate
Sat 12:26:36 PM 42.2806 -85.2672 93° East 118 136 2,200  Level Chicago Center
Sat 12:27:38 PM 42.2564 -85.2494 151° Southeast 109 125 3,100 484 Climbing Chicago Center
Sat 12:28:40 PM 42.2553 -85.1917 91° East 141 162 3,200  Climbing Chicago Center
Sat 12:29:41 PM 42.2469 -85.1194 99° East 154 177 3,100 -49 Descending Chicago Center
Sat 12:30:43 PM 42.2403 -85.0572 98° East 161 185 3,100  Level Chicago Center
Sat 12:31:00 PM 42.2869 -84.9194 93° East  Level FlightAware Approximate
Sat 12:31:45 PM 42.2325 -84.9961 100° East 164 189 3,100  Level Chicago Center
Sat 12:32:46 PM 42.2244 -84.9369 100° East 163 188 3,100  Level Chicago Center
Sat 12:33:48 PM 42.2150 -84.8772 102° East 162 186 3,100  Level Chicago Center
Sat 12:34:50 PM 42.2050 -84.8175 103° East 163 188 3,100 49 Level Chicago Center
Sat 12:35:51 PM 42.1992 -84.7558 97° East 164 189 3,200 98 Climbing Chicago Center
Sat 12:36:53 PM 42.1961 -84.6967 94° East 163 188 3,300 97 Climbing Chicago Center
Sat 12:37:55 PM 42.1914 -84.6239 95° East 162 186 3,400 -49 Climbing Chicago Center
Sat 12:38:56 PM 42.1825 -84.5636 101° East 162 186 3,200 -195 Descending Chicago Center
Sat 12:39:58 PM 42.1728 -84.4939 101° East 166 191 3,000 -194 Descending Chicago Center

Login

Don't have an account? Register now (free) for customized features, flight alerts, and more!